sensor_id;sensor_type;location;lat;lon;timestamp;temperature;humidity
29539;DHT22;16482;51.046;4.498;2023-11-21T00:01:19;24.00;40.40
29539;DHT22;16482;51.046;4.498;2023-11-21T00:04:06;24.00;40.30
29539;DHT22;16482;51.046;4.498;2023-11-21T00:06:33;23.90;40.30
29539;DHT22;16482;51.046;4.498;2023-11-21T00:09:09;23.90;40.30
29539;DHT22;16482;51.046;4.498;2023-11-21T00:11:50;23.90;40.40
29539;DHT22;16482;51.046;4.498;2023-11-21T00:14:18;23.90;40.30
29539;DHT22;16482;51.046;4.498;2023-11-21T00:16:47;23.80;40.40
29539;DHT22;16482;51.046;4.498;2023-11-21T00:19:26;23.80;40.30
29539;DHT22;16482;51.046;4.498;2023-11-21T00:22:05;23.90;40.40
29539;DHT22;16482;51.046;4.498;2023-11-21T00:25:10;23.80;40.40
29539;DHT22;16482;51.046;4.498;2023-11-21T00:27:54;23.80;40.30
29539;DHT22;16482;51.046;4.498;2023-11-21T00:30:41;23.80;40.30
29539;DHT22;16482;51.046;4.498;2023-11-21T00:33:17;23.80;40.40
29539;DHT22;16482;51.046;4.498;2023-11-21T00:36:09;23.80;40.30
29539;DHT22;16482;51.046;4.498;2023-11-21T00:38:50;23.80;40.30
29539;DHT22;16482;51.046;4.498;2023-11-21T00:41:39;23.80;40.30
29539;DHT22;16482;51.046;4.498;2023-11-21T00:44:34;23.70;40.30
29539;DHT22;16482;51.046;4.498;2023-11-21T00:47:13;23.70;40.20
29539;DHT22;16482;51.046;4.498;2023-11-21T00:50:04;23.70;40.20
29539;DHT22;16482;51.046;4.498;2023-11-21T00:52:41;23.70;40.30
29539;DHT22;16482;51.046;4.498;2023-11-21T00:55:19;23.70;40.40
29539;DHT22;16482;51.046;4.498;2023-11-21T00:57:58;23.70;40.30
29539;DHT22;16482;51.046;4.498;2023-11-21T01:00:54;23.70;40.30
29539;DHT22;16482;51.046;4.498;2023-11-21T01:03:31;23.70;40.30
29539;DHT22;16482;51.046;4.498;2023-11-21T01:05:57;23.70;40.30
29539;DHT22;16482;51.046;4.498;2023-11-21T01:08:46;23.70;41.00
29539;DHT22;16482;51.046;4.498;2023-11-21T01:11:24;23.60;40.30
29539;DHT22;16482;51.046;4.498;2023-11-21T01:14:18;23.60;40.30
29539;DHT22;16482;51.046;4.498;2023-11-21T01:16:51;23.70;40.50
29539;DHT22;16482;51.046;4.498;2023-11-21T01:19:22;23.70;40.50
29539;DHT22;16482;51.046;4.498;2023-11-21T01:22:06;23.60;40.40
29539;DHT22;16482;51.046;4.498;2023-11-21T01:27:45;23.60;40.60
29539;DHT22;16482;51.046;4.498;2023-11-21T01:30:21;23.60;40.70
29539;DHT22;16482;51.046;4.498;2023-11-21T01:32:59;23.60;40.60
29539;DHT22;16482;51.046;4.498;2023-11-21T01:35:56;23.60;40.60
29539;DHT22;16482;51.046;4.498;2023-11-21T01:38:32;23.60;40.60
29539;DHT22;16482;51.046;4.498;2023-11-21T01:41:08;23.50;40.70
29539;DHT22;16482;51.046;4.498;2023-11-21T01:44:02;23.60;40.70
29539;DHT22;16482;51.046;4.498;2023-11-21T01:46:58;23.60;40.70
29539;DHT22;16482;51.046;4.498;2023-11-21T01:49:52;23.60;40.70
29539;DHT22;16482;51.046;4.498;2023-11-21T01:52:38;23.50;40.70
29539;DHT22;16482;51.046;4.498;2023-11-21T01:55:18;23.50;40.80
29539;DHT22;16482;51.046;4.498;2023-11-21T01:57:55;23.50;40.80
29539;DHT22;16482;51.046;4.498;2023-11-21T02:00:40;23.60;40.90
29539;DHT22;16482;51.046;4.498;2023-11-21T02:03:23;23.50;40.80
29539;DHT22;16482;51.046;4.498;2023-11-21T02:09:27;23.60;40.80
29539;DHT22;16482;51.046;4.498;2023-11-21T02:12:14;23.60;40.70
29539;DHT22;16482;51.046;4.498;2023-11-21T02:14:54;23.50;40.90
29539;DHT22;16482;51.046;4.498;2023-11-21T02:20:37;23.50;40.70
29539;DHT22;16482;51.046;4.498;2023-11-21T02:23:34;23.50;40.80
29539;DHT22;16482;51.046;4.498;2023-11-21T02:26:15;23.50;40.80
29539;DHT22;16482;51.046;4.498;2023-11-21T02:29:09;23.60;40.90
29539;DHT22;16482;51.046;4.498;2023-11-21T02:31:56;23.50;40.90
29539;DHT22;16482;51.046;4.498;2023-11-21T02:34:35;23.50;41.00
29539;DHT22;16482;51.046;4.498;2023-11-21T02:37:07;23.50;40.90
29539;DHT22;16482;51.046;4.498;2023-11-21T02:39:54;23.40;40.80
29539;DHT22;16482;51.046;4.498;2023-11-21T02:42:35;23.50;40.90
29539;DHT22;16482;51.046;4.498;2023-11-21T02:45:17;23.50;40.90
29539;DHT22;16482;51.046;4.498;2023-11-21T02:48:00;23.50;40.90
29539;DHT22;16482;51.046;4.498;2023-11-21T02:50:32;23.50;40.90
29539;DHT22;16482;51.046;4.498;2023-11-21T02:53:10;23.50;40.80
29539;DHT22;16482;51.046;4.498;2023-11-21T02:55:53;23.50;40.90
29539;DHT22;16482;51.046;4.498;2023-11-21T02:58:33;23.50;40.90
29539;DHT22;16482;51.046;4.498;2023-11-21T03:01:12;23.40;40.90
29539;DHT22;16482;51.046;4.498;2023-11-21T03:03:50;23.40;40.90
29539;DHT22;16482;51.046;4.498;2023-11-21T03:06:41;23.50;40.90
29539;DHT22;16482;51.046;4.498;2023-11-21T03:09:12;23.50;40.90
29539;DHT22;16482;51.046;4.498;2023-11-21T03:11:52;23.40;41.00
29539;DHT22;16482;51.046;4.498;2023-11-21T03:14:31;23.40;40.80
29539;DHT22;16482;51.046;4.498;2023-11-21T03:17:21;23.50;40.90
29539;DHT22;16482;51.046;4.498;2023-11-21T03:20:07;23.50;40.90
29539;DHT22;16482;51.046;4.498;2023-11-21T03:22:56;23.50;40.90
29539;DHT22;16482;51.046;4.498;2023-11-21T03:28:37;23.50;41.00
29539;DHT22;16482;51.046;4.498;2023-11-21T03:31:05;23.40;41.00
29539;DHT22;16482;51.046;4.498;2023-11-21T03:33:39;23.40;40.90
29539;DHT22;16482;51.046;4.498;2023-11-21T03:36:21;23.40;40.90
29539;DHT22;16482;51.046;4.498;2023-11-21T03:38:51;23.50;41.00
29539;DHT22;16482;51.046;4.498;2023-11-21T03:41:37;23.50;41.00
29539;DHT22;16482;51.046;4.498;2023-11-21T03:44:23;23.40;41.00
29539;DHT22;16482;51.046;4.498;2023-11-21T03:47:20;23.40;40.90
29539;DHT22;16482;51.046;4.498;2023-11-21T03:49:56;23.40;40.90
29539;DHT22;16482;51.046;4.498;2023-11-21T03:52:35;23.40;41.00
29539;DHT22;16482;51.046;4.498;2023-11-21T03:55:19;23.40;41.00
29539;DHT22;16482;51.046;4.498;2023-11-21T03:58:15;23.40;41.00
29539;DHT22;16482;51.046;4.498;2023-11-21T04:00:57;23.40;41.00
29539;DHT22;16482;51.046;4.498;2023-11-21T04:03:50;23.40;41.10
29539;DHT22;16482;51.046;4.498;2023-11-21T04:06:32;23.40;41.00
29539;DHT22;16482;51.046;4.498;2023-11-21T04:09:18;23.40;41.10
29539;DHT22;16482;51.046;4.498;2023-11-21T04:12:04;23.30;41.00
29539;DHT22;16482;51.046;4.498;2023-11-21T04:14:45;23.30;40.90
29539;DHT22;16482;51.046;4.498;2023-11-21T04:17:40;23.40;41.00
29539;DHT22;16482;51.046;4.498;2023-11-21T04:20:19;23.40;41.00
29539;DHT22;16482;51.046;4.498;2023-11-21T04:22:57;23.30;41.10
29539;DHT22;16482;51.046;4.498;2023-11-21T04:25:29;23.40;41.20
29539;DHT22;16482;51.046;4.498;2023-11-21T04:28:10;23.40;41.20
29539;DHT22;16482;51.046;4.498;2023-11-21T04:30:41;23.40;41.10
29539;DHT22;16482;51.046;4.498;2023-11-21T04:33:29;23.30;41.00
29539;DHT22;16482;51.046;4.498;2023-11-21T04:36:12;23.30;41.10
29539;DHT22;16482;51.046;4.498;2023-11-21T04:39:06;23.40;41.10
29539;DHT22;16482;51.046;4.498;2023-11-21T04:41:54;23.40;41.20
29539;DHT22;16482;51.046;4.498;2023-11-21T04:44:47;23.40;41.20
29539;DHT22;16482;51.046;4.498;2023-11-21T04:47:19;23.30;41.10
29539;DHT22;16482;51.046;4.498;2023-11-21T04:49:47;23.30;41.20
29539;DHT22;16482;51.046;4.498;2023-11-21T04:52:41;23.40;41.30
29539;DHT22;16482;51.046;4.498;2023-11-21T04:55:19;23.30;41.20
29539;DHT22;16482;51.046;4.498;2023-11-21T04:58:18;23.30;41.20
29539;DHT22;16482;51.046;4.498;2023-11-21T05:00:54;23.30;41.20
29539;DHT22;16482;51.046;4.498;2023-11-21T05:03:38;23.30;41.20
29539;DHT22;16482;51.046;4.498;2023-11-21T05:06:14;23.30;41.20
29539;DHT22;16482;51.046;4.498;2023-11-21T05:09:02;23.30;41.30
29539;DHT22;16482;51.046;4.498;2023-11-21T05:11:40;23.30;41.20
29539;DHT22;16482;51.046;4.498;2023-11-21T05:14:34;23.40;41.30
29539;DHT22;16482;51.046;4.498;2023-11-21T05:17:13;23.20;41.20
29539;DHT22;16482;51.046;4.498;2023-11-21T05:19:41;23.30;41.30
29539;DHT22;16482;51.046;4.498;2023-11-21T05:22:17;23.30;41.30
29539;DHT22;16482;51.046;4.498;2023-11-21T05:25:08;23.30;41.40
29539;DHT22;16482;51.046;4.498;2023-11-21T05:27:47;23.30;41.40
29539;DHT22;16482;51.046;4.498;2023-11-21T05:30:39;23.30;41.40
29539;DHT22;16482;51.046;4.498;2023-11-21T05:33:26;23.30;41.40
29539;DHT22;16482;51.046;4.498;2023-11-21T05:36:02;23.30;41.30
29539;DHT22;16482;51.046;4.498;2023-11-21T05:38:41;23.30;41.40
29539;DHT22;16482;51.046;4.498;2023-11-21T05:41:17;23.30;41.50
29539;DHT22;16482;51.046;4.498;2023-11-21T05:44:03;23.30;41.50
29539;DHT22;16482;51.046;4.498;2023-11-21T05:47:02;23.30;41.50
29539;DHT22;16482;51.046;4.498;2023-11-21T05:49:49;23.30;41.50
29539;DHT22;16482;51.046;4.498;2023-11-21T05:52:46;23.30;41.50
29539;DHT22;16482;51.046;4.498;2023-11-21T05:55:43;23.30;41.60
29539;DHT22;16482;51.046;4.498;2023-11-21T05:58:22;23.30;41.60
29539;DHT22;16482;51.046;4.498;2023-11-21T06:01:06;23.20;41.50
29539;DHT22;16482;51.046;4.498;2023-11-21T06:04:04;23.30;41.60
29539;DHT22;16482;51.046;4.498;2023-11-21T06:06:51;23.20;41.50
29539;DHT22;16482;51.046;4.498;2023-11-21T06:09:42;23.20;41.60
29539;DHT22;16482;51.046;4.498;2023-11-21T06:12:23;23.20;41.60
29539;DHT22;16482;51.046;4.498;2023-11-21T06:15:11;23.20;41.70
29539;DHT22;16482;51.046;4.498;2023-11-21T06:21:08;23.30;41.80
29539;DHT22;16482;51.046;4.498;2023-11-21T06:23:47;23.30;41.90
29539;DHT22;16482;51.046;4.498;2023-11-21T06:26:31;23.30;42.00
29539;DHT22;16482;51.046;4.498;2023-11-21T06:29:28;23.40;41.90
29539;DHT22;16482;51.046;4.498;2023-11-21T06:32:11;23.50;41.80
29539;DHT22;16482;51.046;4.498;2023-11-21T06:34:39;23.50;41.80
29539;DHT22;16482;51.046;4.498;2023-11-21T06:37:16;23.50;41.90
29539;DHT22;16482;51.046;4.498;2023-11-21T06:39:42;23.50;41.80
29539;DHT22;16482;51.046;4.498;2023-11-21T06:42:19;23.60;41.80
29539;DHT22;16482;51.046;4.498;2023-11-21T06:45:07;23.60;41.70
29539;DHT22;16482;51.046;4.498;2023-11-21T06:47:43;23.70;41.60
29539;DHT22;16482;51.046;4.498;2023-11-21T06:50:15;23.70;41.70
29539;DHT22;16482;51.046;4.498;2023-11-21T06:53:07;23.70;41.60
29539;DHT22;16482;51.046;4.498;2023-11-21T06:56:01;23.80;41.50
29539;DHT22;16482;51.046;4.498;2023-11-21T06:58:37;23.80;41.50
29539;DHT22;16482;51.046;4.498;2023-11-21T07:01:31;23.80;41.50
29539;DHT22;16482;51.046;4.498;2023-11-21T07:04:11;23.80;41.40
29539;DHT22;16482;51.046;4.498;2023-11-21T07:07:00;23.90;41.50
29539;DHT22;16482;51.046;4.498;2023-11-21T07:09:38;23.90;41.30
29539;DHT22;16482;51.046;4.498;2023-11-21T07:12:14;23.90;41.30
29539;DHT22;16482;51.046;4.498;2023-11-21T07:14:53;24.00;41.40
29539;DHT22;16482;51.046;4.498;2023-11-21T07:17:41;24.00;41.40
29539;DHT22;16482;51.046;4.498;2023-11-21T07:20:15;24.00;41.30
29539;DHT22;16482;51.046;4.498;2023-11-21T07:22:45;24.00;41.30
29539;DHT22;16482;51.046;4.498;2023-11-21T07:25:42;24.00;41.30
29539;DHT22;16482;51.046;4.498;2023-11-21T07:28:26;23.90;41.20
29539;DHT22;16482;51.046;4.498;2023-11-21T07:31:04;24.10;41.20
29539;DHT22;16482;51.046;4.498;2023-11-21T07:33:43;24.00;41.20
29539;DHT22;16482;51.046;4.498;2023-11-21T07:36:22;24.00;41.20
29539;DHT22;16482;51.046;4.498;2023-11-21T07:38:58;24.00;41.20
29539;DHT22;16482;51.046;4.498;2023-11-21T07:41:37;24.10;41.30
29539;DHT22;16482;51.046;4.498;2023-11-21T07:44:17;24.10;41.20
29539;DHT22;16482;51.046;4.498;2023-11-21T07:46:55;24.10;41.20
29539;DHT22;16482;51.046;4.498;2023-11-21T07:49:35;24.10;41.20
29539;DHT22;16482;51.046;4.498;2023-11-21T07:52:16;24.10;41.20
29539;DHT22;16482;51.046;4.498;2023-11-21T07:54:55;24.10;41.20
29539;DHT22;16482;51.046;4.498;2023-11-21T07:57:51;24.10;41.20
29539;DHT22;16482;51.046;4.498;2023-11-21T08:00:39;24.10;41.80
29539;DHT22;16482;51.046;4.498;2023-11-21T08:03:15;24.10;41.20
29539;DHT22;16482;51.046;4.498;2023-11-21T08:05:54;24.10;41.20
29539;DHT22;16482;51.046;4.498;2023-11-21T08:08:51;24.10;41.30
29539;DHT22;16482;51.046;4.498;2023-11-21T08:11:32;24.10;41.30
29539;DHT22;16482;51.046;4.498;2023-11-21T08:14:13;24.10;41.30
29539;DHT22;16482;51.046;4.498;2023-11-21T08:16:50;24.10;41.30
29539;DHT22;16482;51.046;4.498;2023-11-21T08:19:41;24.10;41.30
29539;DHT22;16482;51.046;4.498;2023-11-21T08:22:20;24.10;41.30
29539;DHT22;16482;51.046;4.498;2023-11-21T08:25:07;24.10;41.80
29539;DHT22;16482;51.046;4.498;2023-11-21T08:27:43;24.10;41.40
29539;DHT22;16482;51.046;4.498;2023-11-21T08:30:24;24.10;41.50
29539;DHT22;16482;51.046;4.498;2023-11-21T08:33:00;24.10;41.50
29539;DHT22;16482;51.046;4.498;2023-11-21T08:35:37;24.10;41.70
29539;DHT22;16482;51.046;4.498;2023-11-21T08:38:33;24.10;41.60
29539;DHT22;16482;51.046;4.498;2023-11-21T08:41:11;24.00;41.50
29539;DHT22;16482;51.046;4.498;2023-11-21T08:43:51;24.10;41.70
29539;DHT22;16482;51.046;4.498;2023-11-21T08:46:35;24.00;41.60
29539;DHT22;16482;51.046;4.498;2023-11-21T08:49:32;24.00;41.60
29539;DHT22;16482;51.046;4.498;2023-11-21T08:52:02;24.00;41.60
29539;DHT22;16482;51.046;4.498;2023-11-21T08:54:38;24.00;41.70
29539;DHT22;16482;51.046;4.498;2023-11-21T08:57:23;24.00;41.70
29539;DHT22;16482;51.046;4.498;2023-11-21T09:00:10;24.00;41.80
29539;DHT22;16482;51.046;4.498;2023-11-21T09:02:58;24.00;41.80
29539;DHT22;16482;51.046;4.498;2023-11-21T09:05:40;24.00;41.80
29539;DHT22;16482;51.046;4.498;2023-11-21T09:08:19;23.90;41.90
29539;DHT22;16482;51.046;4.498;2023-11-21T09:11:17;23.90;41.90
29539;DHT22;16482;51.046;4.498;2023-11-21T09:14:03;23.80;41.80
29539;DHT22;16482;51.046;4.498;2023-11-21T09:17:01;23.90;41.90
29539;DHT22;16482;51.046;4.498;2023-11-21T09:19:44;23.90;41.90
29539;DHT22;16482;51.046;4.498;2023-11-21T09:22:25;23.90;41.90
29539;DHT22;16482;51.046;4.498;2023-11-21T09:25:13;23.80;41.90
29539;DHT22;16482;51.046;4.498;2023-11-21T09:27:56;23.80;42.70
29539;DHT22;16482;51.046;4.498;2023-11-21T09:30:38;23.80;42.20
29539;DHT22;16482;51.046;4.498;2023-11-21T09:33:40;23.80;42.30
29539;DHT22;16482;51.046;4.498;2023-11-21T09:36:16;23.80;42.20
29539;DHT22;16482;51.046;4.498;2023-11-21T09:39:01;23.80;42.20
29539;DHT22;16482;51.046;4.498;2023-11-21T09:42:12;23.80;42.10
29539;DHT22;16482;51.046;4.498;2023-11-21T09:45:01;23.80;41.90
29539;DHT22;16482;51.046;4.498;2023-11-21T09:47:59;23.80;41.90
29539;DHT22;16482;51.046;4.498;2023-11-21T09:50:44;23.80;42.10
29539;DHT22;16482;51.046;4.498;2023-11-21T09:53:34;23.80;42.10
29539;DHT22;16482;51.046;4.498;2023-11-21T09:56:16;23.80;42.00
29539;DHT22;16482;51.046;4.498;2023-11-21T09:58:58;23.80;42.10
29539;DHT22;16482;51.046;4.498;2023-11-21T10:01:57;23.80;42.20
29539;DHT22;16482;51.046;4.498;2023-11-21T10:05:04;23.80;42.20
29539;DHT22;16482;51.046;4.498;2023-11-21T10:07:49;23.80;42.30
29539;DHT22;16482;51.046;4.498;2023-11-21T10:10:32;23.80;42.30
29539;DHT22;16482;51.046;4.498;2023-11-21T10:13:29;23.80;42.40
29539;DHT22;16482;51.046;4.498;2023-11-21T10:19:23;23.70;42.50
29539;DHT22;16482;51.046;4.498;2023-11-21T10:22:09;23.70;42.50
29539;DHT22;16482;51.046;4.498;2023-11-21T10:24:40;23.70;42.60
29539;DHT22;16482;51.046;4.498;2023-11-21T10:27:42;23.70;42.80
29539;DHT22;16482;51.046;4.498;2023-11-21T10:30:18;23.70;42.70
29539;DHT22;16482;51.046;4.498;2023-11-21T10:33:20;23.70;42.90
29539;DHT22;16482;51.046;4.498;2023-11-21T10:36:01;23.70;43.00
29539;DHT22;16482;51.046;4.498;2023-11-21T10:38:42;23.70;43.10
29539;DHT22;16482;51.046;4.498;2023-11-21T10:41:21;23.70;43.30
29539;DHT22;16482;51.046;4.498;2023-11-21T10:44:00;23.70;43.40
29539;DHT22;16482;51.046;4.498;2023-11-21T10:46:36;23.60;43.20
29539;DHT22;16482;51.046;4.498;2023-11-21T10:49:38;23.60;43.30
29539;DHT22;16482;51.046;4.498;2023-11-21T10:52:44;23.70;43.40
29539;DHT22;16482;51.046;4.498;2023-11-21T10:55:47;23.60;43.40
29539;DHT22;16482;51.046;4.498;2023-11-21T10:58:33;23.70;43.50
29539;DHT22;16482;51.046;4.498;2023-11-21T11:01:11;23.70;43.50
29539;DHT22;16482;51.046;4.498;2023-11-21T11:04:30;23.60;43.50
29539;DHT22;16482;51.046;4.498;2023-11-21T11:07:10;23.70;43.60
29539;DHT22;16482;51.046;4.498;2023-11-21T11:10:11;23.60;43.60
29539;DHT22;16482;51.046;4.498;2023-11-21T11:12:55;23.70;43.60
29539;DHT22;16482;51.046;4.498;2023-11-21T11:15:48;23.60;43.70
29539;DHT22;16482;51.046;4.498;2023-11-21T11:18:37;23.60;43.70
29539;DHT22;16482;51.046;4.498;2023-11-21T11:21:34;23.60;43.80
29539;DHT22;16482;51.046;4.498;2023-11-21T11:39:40;23.60;43.80
29539;DHT22;16482;51.046;4.498;2023-11-21T11:42:39;23.60;43.80
29539;DHT22;16482;51.046;4.498;2023-11-21T11:45:31;23.60;44.50
29539;DHT22;16482;51.046;4.498;2023-11-21T11:48:13;23.60;43.90
29539;DHT22;16482;51.046;4.498;2023-11-21T11:51:30;23.70;44.00
29539;DHT22;16482;51.046;4.498;2023-11-21T11:57:12;23.60;43.90
29539;DHT22;16482;51.046;4.498;2023-11-21T12:00:08;23.60;44.10
29539;DHT22;16482;51.046;4.498;2023-11-21T12:03:01;23.70;44.00
29539;DHT22;16482;51.046;4.498;2023-11-21T12:05:46;23.60;44.10
29539;DHT22;16482;51.046;4.498;2023-11-21T12:08:28;23.70;44.10
29539;DHT22;16482;51.046;4.498;2023-11-21T12:11:22;23.70;44.30
29539;DHT22;16482;51.046;4.498;2023-11-21T12:14:17;23.70;44.50
29539;DHT22;16482;51.046;4.498;2023-11-21T12:16:51;23.70;44.40
29539;DHT22;16482;51.046;4.498;2023-11-21T12:19:46;23.60;44.40
29539;DHT22;16482;51.046;4.498;2023-11-21T12:22:43;23.80;44.50
29539;DHT22;16482;51.046;4.498;2023-11-21T12:25:24;23.70;44.40
29539;DHT22;16482;51.046;4.498;2023-11-21T12:28:01;23.70;44.50
29539;DHT22;16482;51.046;4.498;2023-11-21T12:30:47;23.70;44.60
29539;DHT22;16482;51.046;4.498;2023-11-21T12:33:41;23.70;44.90
29539;DHT22;16482;51.046;4.498;2023-11-21T12:39:23;23.70;44.70
29539;DHT22;16482;51.046;4.498;2023-11-21T12:42:02;23.60;44.80
29539;DHT22;16482;51.046;4.498;2023-11-21T12:44:39;23.60;44.70
29539;DHT22;16482;51.046;4.498;2023-11-21T12:47:17;23.60;44.90
29539;DHT22;16482;51.046;4.498;2023-11-21T12:49:54;23.60;44.90
29539;DHT22;16482;51.046;4.498;2023-11-21T12:52:45;23.60;44.90
29539;DHT22;16482;51.046;4.498;2023-11-21T12:55:43;23.60;45.00
29539;DHT22;16482;51.046;4.498;2023-11-21T12:58:36;23.60;45.10
29539;DHT22;16482;51.046;4.498;2023-11-21T13:04:53;23.60;45.20
29539;DHT22;16482;51.046;4.498;2023-11-21T13:07:46;23.60;45.20
29539;DHT22;16482;51.046;4.498;2023-11-21T13:10:29;23.50;45.30
29539;DHT22;16482;51.046;4.498;2023-11-21T13:13:05;23.50;45.30
29539;DHT22;16482;51.046;4.498;2023-11-21T13:16:08;23.50;45.30
29539;DHT22;16482;51.046;4.498;2023-11-21T13:18:55;23.50;45.20
29539;DHT22;16482;51.046;4.498;2023-11-21T13:21:57;23.40;45.20
29539;DHT22;16482;51.046;4.498;2023-11-21T13:24:36;23.50;45.30
29539;DHT22;16482;51.046;4.498;2023-11-21T13:33:13;23.50;45.20
29539;DHT22;16482;51.046;4.498;2023-11-21T13:36:00;23.50;45.20
29539;DHT22;16482;51.046;4.498;2023-11-21T13:41:46;23.50;45.30
29539;DHT22;16482;51.046;4.498;2023-11-21T13:44:33;23.50;45.40
29539;DHT22;16482;51.046;4.498;2023-11-21T13:47:18;23.40;45.30
29539;DHT22;16482;51.046;4.498;2023-11-21T13:50:12;23.40;45.20
29539;DHT22;16482;51.046;4.498;2023-11-21T13:52:52;23.50;45.30
29539;DHT22;16482;51.046;4.498;2023-11-21T13:55:41;23.40;45.40
29539;DHT22;16482;51.046;4.498;2023-11-21T14:01:24;23.50;45.20
29539;DHT22;16482;51.046;4.498;2023-11-21T14:04:13;23.40;45.20
29539;DHT22;16482;51.046;4.498;2023-11-21T14:06:56;23.50;45.40
29539;DHT22;16482;51.046;4.498;2023-11-21T14:09:36;23.40;45.30
29539;DHT22;16482;51.046;4.498;2023-11-21T14:12:26;23.50;45.40
29539;DHT22;16482;51.046;4.498;2023-11-21T14:15:24;23.50;45.50
29539;DHT22;16482;51.046;4.498;2023-11-21T14:18:05;23.60;45.50
29539;DHT22;16482;51.046;4.498;2023-11-21T14:21:04;23.50;45.50
29539;DHT22;16482;51.046;4.498;2023-11-21T14:23:44;23.50;45.40
29539;DHT22;16482;51.046;4.498;2023-11-21T14:26:24;23.50;45.50
29539;DHT22;16482;51.046;4.498;2023-11-21T14:29:06;23.50;45.60
29539;DHT22;16482;51.046;4.498;2023-11-21T14:31:48;23.50;45.50
29539;DHT22;16482;51.046;4.498;2023-11-21T14:34:27;23.50;45.40
29539;DHT22;16482;51.046;4.498;2023-11-21T14:37:06;23.50;45.40
29539;DHT22;16482;51.046;4.498;2023-11-21T14:39:35;23.50;45.40
29539;DHT22;16482;51.046;4.498;2023-11-21T14:42:14;23.50;45.40
29539;DHT22;16482;51.046;4.498;2023-11-21T14:45:13;23.60;45.40
29539;DHT22;16482;51.046;4.498;2023-11-21T14:47:54;23.50;45.30
29539;DHT22;16482;51.046;4.498;2023-11-21T14:51:01;23.60;45.30
29539;DHT22;16482;51.046;4.498;2023-11-21T14:53:49;23.50;45.30
29539;DHT22;16482;51.046;4.498;2023-11-21T14:56:52;23.50;45.30
29539;DHT22;16482;51.046;4.498;2023-11-21T14:59:31;23.50;45.30
29539;DHT22;16482;51.046;4.498;2023-11-21T15:02:11;23.50;45.50
29539;DHT22;16482;51.046;4.498;2023-11-21T15:04:55;23.50;45.30
29539;DHT22;16482;51.046;4.498;2023-11-21T15:07:39;23.50;45.30
29539;DHT22;16482;51.046;4.498;2023-11-21T15:10:36;23.50;45.20
29539;DHT22;16482;51.046;4.498;2023-11-21T15:13:44;23.50;45.20
29539;DHT22;16482;51.046;4.498;2023-11-21T15:16:12;23.50;45.10
29539;DHT22;16482;51.046;4.498;2023-11-21T15:19:20;23.50;45.30
29539;DHT22;16482;51.046;4.498;2023-11-21T15:21:59;23.60;45.20
29539;DHT22;16482;51.046;4.498;2023-11-21T15:24:56;23.50;45.20
29539;DHT22;16482;51.046;4.498;2023-11-21T15:27:40;23.50;45.10
29539;DHT22;16482;51.046;4.498;2023-11-21T15:30:31;23.60;45.20
29539;DHT22;16482;51.046;4.498;2023-11-21T15:33:10;23.50;45.10
29539;DHT22;16482;51.046;4.498;2023-11-21T15:35:48;23.60;45.00
29539;DHT22;16482;51.046;4.498;2023-11-21T15:38:30;23.60;45.00
29539;DHT22;16482;51.046;4.498;2023-11-21T15:41:03;23.60;45.10
29539;DHT22;16482;51.046;4.498;2023-11-21T15:43:39;23.50;45.00
29539;DHT22;16482;51.046;4.498;2023-11-21T15:46:25;23.50;45.10
29539;DHT22;16482;51.046;4.498;2023-11-21T15:49:01;23.60;45.00
29539;DHT22;16482;51.046;4.498;2023-11-21T15:51:47;23.60;45.20
29539;DHT22;16482;51.046;4.498;2023-11-21T15:54:28;23.60;45.10
29539;DHT22;16482;51.046;4.498;2023-11-21T15:57:23;23.60;45.20
29539;DHT22;16482;51.046;4.498;2023-11-21T16:00:05;23.60;45.10
29539;DHT22;16482;51.046;4.498;2023-11-21T16:02:49;23.60;45.20
29539;DHT22;16482;51.046;4.498;2023-11-21T16:05:37;23.60;45.10
29539;DHT22;16482;51.046;4.498;2023-11-21T16:08:26;23.70;45.10
29539;DHT22;16482;51.046;4.498;2023-11-21T16:11:02;23.70;44.90
29539;DHT22;16482;51.046;4.498;2023-11-21T16:13:31;23.80;44.80
29539;DHT22;16482;51.046;4.498;2023-11-21T16:16:09;23.80;44.60
29539;DHT22;16482;51.046;4.498;2023-11-21T16:19:01;23.90;44.60
29539;DHT22;16482;51.046;4.498;2023-11-21T16:21:30;24.00;44.30
29539;DHT22;16482;51.046;4.498;2023-11-21T16:24:06;24.00;44.20
29539;DHT22;16482;51.046;4.498;2023-11-21T16:26:43;24.10;44.10
29539;DHT22;16482;51.046;4.498;2023-11-21T16:29:44;24.10;44.00
29539;DHT22;16482;51.046;4.498;2023-11-21T16:32:20;24.20;43.80
29539;DHT22;16482;51.046;4.498;2023-11-21T16:34:59;24.20;43.90
29539;DHT22;16482;51.046;4.498;2023-11-21T16:37:38;24.30;43.80
29539;DHT22;16482;51.046;4.498;2023-11-21T16:40:14;24.30;43.60
29539;DHT22;16482;51.046;4.498;2023-11-21T16:42:53;24.30;43.60
29539;DHT22;16482;51.046;4.498;2023-11-21T16:45:31;24.40;43.60
29539;DHT22;16482;51.046;4.498;2023-11-21T16:48:08;24.30;43.40
29539;DHT22;16482;51.046;4.498;2023-11-21T16:50:55;24.30;43.40
29539;DHT22;16482;51.046;4.498;2023-11-21T16:53:31;24.40;43.30
29539;DHT22;16482;51.046;4.498;2023-11-21T16:56:28;24.30;43.30
29539;DHT22;16482;51.046;4.498;2023-11-21T16:59:06;24.30;43.20
29539;DHT22;16482;51.046;4.498;2023-11-21T17:01:34;24.40;43.20
29539;DHT22;16482;51.046;4.498;2023-11-21T17:04:03;24.40;43.20
29539;DHT22;16482;51.046;4.498;2023-11-21T17:06:41;24.40;43.20
29539;DHT22;16482;51.046;4.498;2023-11-21T17:09:17;24.40;43.10
29539;DHT22;16482;51.046;4.498;2023-11-21T17:11:56;24.40;43.00
29539;DHT22;16482;51.046;4.498;2023-11-21T17:14:36;24.40;43.00
29539;DHT22;16482;51.046;4.498;2023-11-21T17:20:29;24.50;42.90
29539;DHT22;16482;51.046;4.498;2023-11-21T17:22:54;24.40;42.90
29539;DHT22;16482;51.046;4.498;2023-11-21T17:25:31;24.50;42.90
29539;DHT22;16482;51.046;4.498;2023-11-21T17:28:15;24.50;42.90
29539;DHT22;16482;51.046;4.498;2023-11-21T17:31:11;24.50;42.70
29539;DHT22;16482;51.046;4.498;2023-11-21T17:33:49;24.50;42.60
29539;DHT22;16482;51.046;4.498;2023-11-21T17:36:36;24.50;42.70
29539;DHT22;16482;51.046;4.498;2023-11-21T17:39:30;24.50;42.70
29539;DHT22;16482;51.046;4.498;2023-11-21T17:42:16;24.60;42.70
29539;DHT22;16482;51.046;4.498;2023-11-21T17:44:55;24.50;42.60
29539;DHT22;16482;51.046;4.498;2023-11-21T17:48:08;24.50;42.60
29539;DHT22;16482;51.046;4.498;2023-11-21T17:50:58;24.50;42.50
29539;DHT22;16482;51.046;4.498;2023-11-21T17:53:48;24.50;42.60
29539;DHT22;16482;51.046;4.498;2023-11-21T17:56:49;24.50;42.60
29539;DHT22;16482;51.046;4.498;2023-11-21T17:59:37;24.50;42.50
29539;DHT22;16482;51.046;4.498;2023-11-21T18:02:24;24.50;42.50
29539;DHT22;16482;51.046;4.498;2023-11-21T18:11:36;24.40;42.40
29539;DHT22;16482;51.046;4.498;2023-11-21T18:14:29;24.40;42.40
29539;DHT22;16482;51.046;4.498;2023-11-21T18:20:15;24.50;42.60
29539;DHT22;16482;51.046;4.498;2023-11-21T18:22:54;24.40;42.70
29539;DHT22;16482;51.046;4.498;2023-11-21T18:25:33;24.40;42.60